sensor_id;sensor_type;location;lat;lon;timestamp;temperature;humidity
11246;DHT22;59870;50.106;8.580;2023-10-13T00:00:40;20.80;99.80
11246;DHT22;59870;50.106;8.580;2023-10-13T00:03:09;20.80;99.80
11246;DHT22;59870;50.106;8.580;2023-10-13T00:05:43;20.80;99.70
11246;DHT22;59870;50.106;8.580;2023-10-13T00:08:12;20.80;99.60
11246;DHT22;59870;50.106;8.580;2023-10-13T00:10:41;20.80;99.60
11246;DHT22;59870;50.106;8.580;2023-10-13T00:13:09;20.80;99.60
11246;DHT22;59870;50.106;8.580;2023-10-13T00:15:45;20.80;99.60
11246;DHT22;59870;50.106;8.580;2023-10-13T00:18:39;20.80;99.70
11246;DHT22;59870;50.106;8.580;2023-10-13T00:21:11;20.80;99.70
11246;DHT22;59870;50.106;8.580;2023-10-13T00:23:42;20.80;99.70
11246;DHT22;59870;50.106;8.580;2023-10-13T00:26:27;20.80;99.70
11246;DHT22;59870;50.106;8.580;2023-10-13T00:29:00;20.80;99.70
11246;DHT22;59870;50.106;8.580;2023-10-13T00:31:43;20.80;99.70
11246;DHT22;59870;50.106;8.580;2023-10-13T00:34:15;20.80;99.70
11246;DHT22;59870;50.106;8.580;2023-10-13T00:36:47;20.80;99.70
11246;DHT22;59870;50.106;8.580;2023-10-13T00:39:33;20.80;99.80
11246;DHT22;59870;50.106;8.580;2023-10-13T00:42:04;20.80;99.70
11246;DHT22;59870;50.106;8.580;2023-10-13T00:44:36;20.80;99.70
11246;DHT22;59870;50.106;8.580;2023-10-13T00:47:10;21.00;99.70
11246;DHT22;59870;50.106;8.580;2023-10-13T00:49:46;20.80;99.70
11246;DHT22;59870;50.106;8.580;2023-10-13T00:52:16;20.80;99.70
11246;DHT22;59870;50.106;8.580;2023-10-13T00:54:46;20.80;99.70
11246;DHT22;59870;50.106;8.580;2023-10-13T00:57:14;20.70;99.60
11246;DHT22;59870;50.106;8.580;2023-10-13T00:59:56;20.70;99.70
11246;DHT22;59870;50.106;8.580;2023-10-13T01:02:39;20.70;99.60
11246;DHT22;59870;50.106;8.580;2023-10-13T01:05:07;20.80;99.70
11246;DHT22;59870;50.106;8.580;2023-10-13T01:07:39;20.80;99.80
11246;DHT22;59870;50.106;8.580;2023-10-13T01:10:10;20.80;99.70
11246;DHT22;59870;50.106;8.580;2023-10-13T01:12:42;20.70;99.80
11246;DHT22;59870;50.106;8.580;2023-10-13T01:15:10;20.80;99.70
11246;DHT22;59870;50.106;8.580;2023-10-13T01:17:38;20.80;99.70
11246;DHT22;59870;50.106;8.580;2023-10-13T01:20:06;20.80;99.70
11246;DHT22;59870;50.106;8.580;2023-10-13T01:22:35;20.70;99.70
11246;DHT22;59870;50.106;8.580;2023-10-13T01:25:03;20.80;99.70
11246;DHT22;59870;50.106;8.580;2023-10-13T01:27:40;20.80;99.80
11246;DHT22;59870;50.106;8.580;2023-10-13T01:30:08;20.70;99.70
11246;DHT22;59870;50.106;8.580;2023-10-13T01:32:37;20.70;99.70
11246;DHT22;59870;50.106;8.580;2023-10-13T01:35:08;20.70;99.70
11246;DHT22;59870;50.106;8.580;2023-10-13T01:37:35;20.70;99.80
11246;DHT22;59870;50.106;8.580;2023-10-13T01:40:03;20.80;99.80
11246;DHT22;59870;50.106;8.580;2023-10-13T01:42:32;20.80;99.70
11246;DHT22;59870;50.106;8.580;2023-10-13T01:44:59;20.80;99.70
11246;DHT22;59870;50.106;8.580;2023-10-13T01:47:33;20.80;99.70
11246;DHT22;59870;50.106;8.580;2023-10-13T01:50:00;20.80;99.70
11246;DHT22;59870;50.106;8.580;2023-10-13T01:52:40;20.80;99.70
11246;DHT22;59870;50.106;8.580;2023-10-13T01:55:09;20.80;99.70
11246;DHT22;59870;50.106;8.580;2023-10-13T01:57:39;20.80;99.70
11246;DHT22;59870;50.106;8.580;2023-10-13T02:00:09;20.80;99.70
11246;DHT22;59870;50.106;8.580;2023-10-13T02:02:46;20.60;99.70
11246;DHT22;59870;50.106;8.580;2023-10-13T02:05:17;20.80;99.80
11246;DHT22;59870;50.106;8.580;2023-10-13T02:07:45;20.80;99.80
11246;DHT22;59870;50.106;8.580;2023-10-13T02:10:13;20.80;99.70
11246;DHT22;59870;50.106;8.580;2023-10-13T02:12:41;20.80;99.70
11246;DHT22;59870;50.106;8.580;2023-10-13T02:15:15;20.80;99.70
11246;DHT22;59870;50.106;8.580;2023-10-13T02:17:49;20.80;99.70
11246;DHT22;59870;50.106;8.580;2023-10-13T02:20:20;20.80;99.60
11246;DHT22;59870;50.106;8.580;2023-10-13T02:22:50;20.80;99.60
11246;DHT22;59870;50.106;8.580;2023-10-13T02:25:19;20.80;99.60
11246;DHT22;59870;50.106;8.580;2023-10-13T02:28:04;20.80;99.60
11246;DHT22;59870;50.106;8.580;2023-10-13T02:30:43;20.80;99.60
11246;DHT22;59870;50.106;8.580;2023-10-13T02:33:16;20.80;99.60
11246;DHT22;59870;50.106;8.580;2023-10-13T02:36:00;20.80;99.60
11246;DHT22;59870;50.106;8.580;2023-10-13T02:38:33;20.80;99.60
11246;DHT22;59870;50.106;8.580;2023-10-13T02:41:14;20.80;99.50
11246;DHT22;59870;50.106;8.580;2023-10-13T02:43:56;20.80;99.50
11246;DHT22;59870;50.106;8.580;2023-10-13T02:46:24;20.70;99.40
11246;DHT22;59870;50.106;8.580;2023-10-13T02:48:56;20.80;99.30
11246;DHT22;59870;50.106;8.580;2023-10-13T02:51:27;20.70;99.30
11246;DHT22;59870;50.106;8.580;2023-10-13T02:54:04;20.70;99.40
11246;DHT22;59870;50.106;8.580;2023-10-13T02:56:39;20.70;99.40
11246;DHT22;59870;50.106;8.580;2023-10-13T02:59:18;20.70;99.40
11246;DHT22;59870;50.106;8.580;2023-10-13T03:02:01;20.70;99.40
11246;DHT22;59870;50.106;8.580;2023-10-13T03:04:46;20.70;99.40
11246;DHT22;59870;50.106;8.580;2023-10-13T03:07:14;20.70;99.50
11246;DHT22;59870;50.106;8.580;2023-10-13T03:09:51;20.90;99.60
11246;DHT22;59870;50.106;8.580;2023-10-13T03:12:19;20.70;99.50
11246;DHT22;59870;50.106;8.580;2023-10-13T03:14:47;20.70;99.60
11246;DHT22;59870;50.106;8.580;2023-10-13T03:17:15;20.70;99.60
11246;DHT22;59870;50.106;8.580;2023-10-13T03:19:45;20.70;99.50
11246;DHT22;59870;50.106;8.580;2023-10-13T03:22:19;20.70;99.60
11246;DHT22;59870;50.106;8.580;2023-10-13T03:24:58;20.70;99.60
11246;DHT22;59870;50.106;8.580;2023-10-13T03:27:33;20.70;99.60
11246;DHT22;59870;50.106;8.580;2023-10-13T03:30:15;20.70;99.70
11246;DHT22;59870;50.106;8.580;2023-10-13T03:32:43;20.60;99.60
11246;DHT22;59870;50.106;8.580;2023-10-13T03:35:14;20.70;99.70
11246;DHT22;59870;50.106;8.580;2023-10-13T03:37:51;20.70;99.70
11246;DHT22;59870;50.106;8.580;2023-10-13T03:40:20;20.60;99.60
11246;DHT22;59870;50.106;8.580;2023-10-13T03:42:55;20.60;99.60
11246;DHT22;59870;50.106;8.580;2023-10-13T03:45:36;20.60;99.70
11246;DHT22;59870;50.106;8.580;2023-10-13T03:51:02;20.60;99.70
11246;DHT22;59870;50.106;8.580;2023-10-13T03:53:39;20.60;99.80
11246;DHT22;59870;50.106;8.580;2023-10-13T03:56:24;20.60;99.80
11246;DHT22;59870;50.106;8.580;2023-10-13T03:58:59;20.60;99.80
11246;DHT22;59870;50.106;8.580;2023-10-13T04:01:34;20.60;99.80
11246;DHT22;59870;50.106;8.580;2023-10-13T04:04:12;20.60;99.80
11246;DHT22;59870;50.106;8.580;2023-10-13T04:06:42;20.60;99.80
11246;DHT22;59870;50.106;8.580;2023-10-13T04:09:22;20.60;99.80
11246;DHT22;59870;50.106;8.580;2023-10-13T04:12:01;20.60;99.80
11246;DHT22;59870;50.106;8.580;2023-10-13T04:14:36;20.60;99.80
11246;DHT22;59870;50.106;8.580;2023-10-13T04:17:22;20.60;99.70
11246;DHT22;59870;50.106;8.580;2023-10-13T04:19:55;20.70;99.80
11246;DHT22;59870;50.106;8.580;2023-10-13T04:25:25;20.50;99.90
11246;DHT22;59870;50.106;8.580;2023-10-13T04:28:12;20.60;99.70
11246;DHT22;59870;50.106;8.580;2023-10-13T04:30:50;20.60;99.70
11246;DHT22;59870;50.106;8.580;2023-10-13T04:33:27;20.30;99.60
11246;DHT22;59870;50.106;8.580;2023-10-13T04:36:12;20.50;99.80
11246;DHT22;59870;50.106;8.580;2023-10-13T04:39:04;20.50;99.80
11246;DHT22;59870;50.106;8.580;2023-10-13T04:41:36;20.50;99.80
11246;DHT22;59870;50.106;8.580;2023-10-13T04:44:14;20.50;99.80
11246;DHT22;59870;50.106;8.580;2023-10-13T04:46:58;20.50;99.80
11246;DHT22;59870;50.106;8.580;2023-10-13T04:49:28;20.50;99.80
11246;DHT22;59870;50.106;8.580;2023-10-13T04:52:27;20.70;99.90
11246;DHT22;59870;50.106;8.580;2023-10-13T04:55:28;20.50;99.80
11246;DHT22;59870;50.106;8.580;2023-10-13T04:58:27;20.50;99.80
11246;DHT22;59870;50.106;8.580;2023-10-13T05:01:01;20.50;99.80
11246;DHT22;59870;50.106;8.580;2023-10-13T05:03:47;20.50;99.70
11246;DHT22;59870;50.106;8.580;2023-10-13T05:06:35;20.50;99.70
11246;DHT22;59870;50.106;8.580;2023-10-13T05:09:13;20.80;99.80
11246;DHT22;59870;50.106;8.580;2023-10-13T05:11:59;20.50;99.70
11246;DHT22;59870;50.106;8.580;2023-10-13T05:14:45;20.50;99.70
11246;DHT22;59870;50.106;8.580;2023-10-13T05:17:32;20.50;99.70
11246;DHT22;59870;50.106;8.580;2023-10-13T05:20:18;20.60;99.70
11246;DHT22;59870;50.106;8.580;2023-10-13T05:23:04;20.60;99.60
11246;DHT22;59870;50.106;8.580;2023-10-13T05:25:50;20.50;99.70
11246;DHT22;59870;50.106;8.580;2023-10-13T05:28:36;20.50;99.60
11246;DHT22;59870;50.106;8.580;2023-10-13T05:31:22;20.60;99.70
11246;DHT22;59870;50.106;8.580;2023-10-13T05:34:08;20.50;99.60
11246;DHT22;59870;50.106;8.580;2023-10-13T05:36:54;20.60;99.60
11246;DHT22;59870;50.106;8.580;2023-10-13T05:39:40;20.60;99.60
11246;DHT22;59870;50.106;8.580;2023-10-13T05:42:27;20.60;99.60
11246;DHT22;59870;50.106;8.580;2023-10-13T05:45:26;20.50;99.60
11246;DHT22;59870;50.106;8.580;2023-10-13T05:48:12;20.60;99.60
11246;DHT22;59870;50.106;8.580;2023-10-13T05:50:41;20.60;99.60
11246;DHT22;59870;50.106;8.580;2023-10-13T05:53:24;20.60;99.50
11246;DHT22;59870;50.106;8.580;2023-10-13T05:56:10;20.60;99.50
11246;DHT22;59870;50.106;8.580;2023-10-13T05:58:56;20.60;99.50
11246;DHT22;59870;50.106;8.580;2023-10-13T06:01:42;20.50;99.40
11246;DHT22;59870;50.106;8.580;2023-10-13T06:04:29;20.60;99.40
11246;DHT22;59870;50.106;8.580;2023-10-13T06:07:16;20.60;99.50
11246;DHT22;59870;50.106;8.580;2023-10-13T06:10:03;20.60;99.50
11246;DHT22;59870;50.106;8.580;2023-10-13T06:12:49;20.60;99.50
11246;DHT22;59870;50.106;8.580;2023-10-13T06:15:36;20.60;99.50
11246;DHT22;59870;50.106;8.580;2023-10-13T06:18:23;20.60;99.50
11246;DHT22;59870;50.106;8.580;2023-10-13T06:21:09;20.80;99.70
11246;DHT22;59870;50.106;8.580;2023-10-13T06:23:55;20.90;99.80
11246;DHT22;59870;50.106;8.580;2023-10-13T06:26:41;20.60;99.60
11246;DHT22;59870;50.106;8.580;2023-10-13T06:29:27;20.60;99.50
11246;DHT22;59870;50.106;8.580;2023-10-13T06:31:54;20.70;99.60
11246;DHT22;59870;50.106;8.580;2023-10-13T06:34:25;20.70;99.60
11246;DHT22;59870;50.106;8.580;2023-10-13T06:37:05;20.70;99.70
11246;DHT22;59870;50.106;8.580;2023-10-13T06:39:53;20.70;99.70
11246;DHT22;59870;50.106;8.580;2023-10-13T06:42:24;20.70;99.70
11246;DHT22;59870;50.106;8.580;2023-10-13T06:44:55;20.70;99.70
11246;DHT22;59870;50.106;8.580;2023-10-13T06:47:22;21.10;99.80
11246;DHT22;59870;50.106;8.580;2023-10-13T06:49:51;20.80;99.70
11246;DHT22;59870;50.106;8.580;2023-10-13T06:52:22;20.80;99.80
11246;DHT22;59870;50.106;8.580;2023-10-13T06:54:50;20.80;99.70
11246;DHT22;59870;50.106;8.580;2023-10-13T06:57:18;20.90;99.70
11246;DHT22;59870;50.106;8.580;2023-10-13T06:59:48;20.90;99.70
11246;DHT22;59870;50.106;8.580;2023-10-13T07:02:16;21.00;99.60
11246;DHT22;59870;50.106;8.580;2023-10-13T07:04:56;21.00;99.60
11246;DHT22;59870;50.106;8.580;2023-10-13T07:07:39;21.00;99.60
11246;DHT22;59870;50.106;8.580;2023-10-13T07:10:10;21.00;99.40
11246;DHT22;59870;50.106;8.580;2023-10-13T07:12:42;21.00;99.10
11246;DHT22;59870;50.106;8.580;2023-10-13T07:15:13;21.10;99.20
11246;DHT22;59870;50.106;8.580;2023-10-13T07:17:43;21.10;99.30
11246;DHT22;59870;50.106;8.580;2023-10-13T07:20:12;21.10;99.40
11246;DHT22;59870;50.106;8.580;2023-10-13T07:22:43;21.20;99.10
11246;DHT22;59870;50.106;8.580;2023-10-13T07:25:38;21.00;99.10
11246;DHT22;59870;50.106;8.580;2023-10-13T07:28:08;21.30;99.00
11246;DHT22;59870;50.106;8.580;2023-10-13T07:30:38;21.60;99.10
11246;DHT22;59870;50.106;8.580;2023-10-13T07:33:21;21.30;98.80
11246;DHT22;59870;50.106;8.580;2023-10-13T07:36:00;21.30;98.80
11246;DHT22;59870;50.106;8.580;2023-10-13T07:38:28;21.50;98.90
11246;DHT22;59870;50.106;8.580;2023-10-13T07:40:59;21.60;98.90
11246;DHT22;59870;50.106;8.580;2023-10-13T07:43:35;21.40;99.00
11246;DHT22;59870;50.106;8.580;2023-10-13T07:46:04;21.40;98.90
11246;DHT22;59870;50.106;8.580;2023-10-13T07:48:38;21.50;98.80
11246;DHT22;59870;50.106;8.580;2023-10-13T07:51:09;21.50;98.90
11246;DHT22;59870;50.106;8.580;2023-10-13T07:53:46;21.70;98.90
11246;DHT22;59870;50.106;8.580;2023-10-13T07:56:16;21.70;98.90
11246;DHT22;59870;50.106;8.580;2023-10-13T07:58:46;21.90;98.60
11246;DHT22;59870;50.106;8.580;2023-10-13T08:01:20;22.10;98.70
11246;DHT22;59870;50.106;8.580;2023-10-13T08:03:48;22.20;98.90
11246;DHT22;59870;50.106;8.580;2023-10-13T08:06:31;22.00;98.60
11246;DHT22;59870;50.106;8.580;2023-10-13T08:09:01;22.10;98.30
11246;DHT22;59870;50.106;8.580;2023-10-13T08:11:36;22.20;98.30
11246;DHT22;59870;50.106;8.580;2023-10-13T08:14:07;22.30;98.40
11246;DHT22;59870;50.106;8.580;2023-10-13T08:16:57;22.40;98.00
11246;DHT22;59870;50.106;8.580;2023-10-13T08:19:28;22.70;98.40
11246;DHT22;59870;50.106;8.580;2023-10-13T08:22:09;22.90;98.10
11246;DHT22;59870;50.106;8.580;2023-10-13T08:24:50;22.80;97.80
11246;DHT22;59870;50.106;8.580;2023-10-13T08:27:21;22.90;97.80
11246;DHT22;59870;50.106;8.580;2023-10-13T08:30:07;23.10;97.30
11246;DHT22;59870;50.106;8.580;2023-10-13T08:32:53;23.40;97.10
11246;DHT22;59870;50.106;8.580;2023-10-13T08:35:22;23.60;97.00
11246;DHT22;59870;50.106;8.580;2023-10-13T08:37:51;23.80;96.90
11246;DHT22;59870;50.106;8.580;2023-10-13T08:40:22;24.10;96.00
11246;DHT22;59870;50.106;8.580;2023-10-13T08:43:19;24.70;96.10
11246;DHT22;59870;50.106;8.580;2023-10-13T08:45:47;24.60;95.30
11246;DHT22;59870;50.106;8.580;2023-10-13T08:48:14;25.10;94.80
11246;DHT22;59870;50.106;8.580;2023-10-13T08:50:47;25.10;94.00
11246;DHT22;59870;50.106;8.580;2023-10-13T08:56:01;25.50;93.10
11246;DHT22;59870;50.106;8.580;2023-10-13T08:58:34;25.70;93.50
11246;DHT22;59870;50.106;8.580;2023-10-13T09:01:37;25.70;92.60
11246;DHT22;59870;50.106;8.580;2023-10-13T09:04:17;25.90;92.40
11246;DHT22;59870;50.106;8.580;2023-10-13T09:06:59;26.10;92.00
11246;DHT22;59870;50.106;8.580;2023-10-13T09:09:27;26.20;91.30
11246;DHT22;59870;50.106;8.580;2023-10-13T09:12:17;26.70;90.90
11246;DHT22;59870;50.106;8.580;2023-10-13T09:14:56;26.60;90.20
11246;DHT22;59870;50.106;8.580;2023-10-13T09:17:40;26.70;90.40
11246;DHT22;59870;50.106;8.580;2023-10-13T09:20:09;26.90;89.90
11246;DHT22;59870;50.106;8.580;2023-10-13T09:22:53;26.90;89.30
11246;DHT22;59870;50.106;8.580;2023-10-13T09:25:36;27.10;87.90
11246;DHT22;59870;50.106;8.580;2023-10-13T09:28:14;27.20;86.20
11246;DHT22;59870;50.106;8.580;2023-10-13T09:30:46;27.20;88.00
11246;DHT22;59870;50.106;8.580;2023-10-13T09:33:25;27.20;85.60
11246;DHT22;59870;50.106;8.580;2023-10-13T09:36:00;27.30;86.00
11246;DHT22;59870;50.106;8.580;2023-10-13T09:38:29;27.60;84.60
11246;DHT22;59870;50.106;8.580;2023-10-13T09:40:58;27.60;84.40
11246;DHT22;59870;50.106;8.580;2023-10-13T09:43:35;27.40;84.00
11246;DHT22;59870;50.106;8.580;2023-10-13T09:46:06;27.40;83.60
11246;DHT22;59870;50.106;8.580;2023-10-13T09:48:38;27.40;84.80
11246;DHT22;59870;50.106;8.580;2023-10-13T09:51:14;27.50;84.00
11246;DHT22;59870;50.106;8.580;2023-10-13T09:54:08;27.70;84.30
11246;DHT22;59870;50.106;8.580;2023-10-13T09:57:03;27.70;84.70
11246;DHT22;59870;50.106;8.580;2023-10-13T09:59:52;27.80;81.60
11246;DHT22;59870;50.106;8.580;2023-10-13T10:02:23;27.80;82.30
11246;DHT22;59870;50.106;8.580;2023-10-13T10:04:55;27.90;82.00
11246;DHT22;59870;50.106;8.580;2023-10-13T10:07:39;27.90;80.80
11246;DHT22;59870;50.106;8.580;2023-10-13T10:10:11;28.00;79.90
11246;DHT22;59870;50.106;8.580;2023-10-13T10:15:29;27.90;82.00
11246;DHT22;59870;50.106;8.580;2023-10-13T10:18:22;28.00;82.30
11246;DHT22;59870;50.106;8.580;2023-10-13T10:21:03;28.10;81.60
11246;DHT22;59870;50.106;8.580;2023-10-13T10:23:34;28.00;81.00
11246;DHT22;59870;50.106;8.580;2023-10-13T10:26:13;28.00;80.80
11246;DHT22;59870;50.106;8.580;2023-10-13T10:28:43;28.20;80.10
11246;DHT22;59870;50.106;8.580;2023-10-13T10:31:12;28.00;80.30
11246;DHT22;59870;50.106;8.580;2023-10-13T10:33:40;27.90;81.80
11246;DHT22;59870;50.106;8.580;2023-10-13T10:36:10;27.90;80.80
11246;DHT22;59870;50.106;8.580;2023-10-13T10:38:56;27.90;80.30
11246;DHT22;59870;50.106;8.580;2023-10-13T10:41:29;27.90;81.20
11246;DHT22;59870;50.106;8.580;2023-10-13T10:44:13;28.20;79.60
11246;DHT22;59870;50.106;8.580;2023-10-13T10:46:45;27.90;79.60
11246;DHT22;59870;50.106;8.580;2023-10-13T10:49:21;28.20;79.70
11246;DHT22;59870;50.106;8.580;2023-10-13T10:52:01;28.10;78.80
11246;DHT22;59870;50.106;8.580;2023-10-13T10:54:31;28.00;79.20
11246;DHT22;59870;50.106;8.580;2023-10-13T10:57:00;28.30;78.10
11246;DHT22;59870;50.106;8.580;2023-10-13T10:59:47;28.00;78.90
11246;DHT22;59870;50.106;8.580;2023-10-13T11:02:36;28.10;78.40
11246;DHT22;59870;50.106;8.580;2023-10-13T11:05:08;28.10;78.80
11246;DHT22;59870;50.106;8.580;2023-10-13T11:07:45;28.40;77.40
11246;DHT22;59870;50.106;8.580;2023-10-13T11:10:24;28.20;78.50
11246;DHT22;59870;50.106;8.580;2023-10-13T11:12:59;28.20;79.40
11246;DHT22;59870;50.106;8.580;2023-10-13T11:15:50;28.20;79.00
11246;DHT22;59870;50.106;8.580;2023-10-13T11:18:44;28.30;78.50
11246;DHT22;59870;50.106;8.580;2023-10-13T11:21:17;28.30;79.60
11246;DHT22;59870;50.106;8.580;2023-10-13T11:23:55;28.40;78.10
11246;DHT22;59870;50.106;8.580;2023-10-13T11:26:33;28.30;78.90
11246;DHT22;59870;50.106;8.580;2023-10-13T11:29:02;28.30;78.80
11246;DHT22;59870;50.106;8.580;2023-10-13T11:31:38;28.40;77.20
11246;DHT22;59870;50.106;8.580;2023-10-13T11:34:10;28.40;77.90
11246;DHT22;59870;50.106;8.580;2023-10-13T11:36:43;28.30;77.90
11246;DHT22;59870;50.106;8.580;2023-10-13T11:39:10;28.30;78.10
11246;DHT22;59870;50.106;8.580;2023-10-13T11:41:45;28.30;77.20
11246;DHT22;59870;50.106;8.580;2023-10-13T11:44:20;28.30;78.00
11246;DHT22;59870;50.106;8.580;2023-10-13T11:46:49;28.20;77.90
11246;DHT22;59870;50.106;8.580;2023-10-13T11:49:23;28.60;77.50
11246;DHT22;59870;50.106;8.580;2023-10-13T11:51:56;28.50;78.00
11246;DHT22;59870;50.106;8.580;2023-10-13T11:54:43;28.40;77.60
11246;DHT22;59870;50.106;8.580;2023-10-13T11:57:11;28.20;78.70
11246;DHT22;59870;50.106;8.580;2023-10-13T11:59:40;28.40;77.80
11246;DHT22;59870;50.106;8.580;2023-10-13T12:02:12;28.30;77.10
11246;DHT22;59870;50.106;8.580;2023-10-13T12:04:52;28.50;78.40
11246;DHT22;59870;50.106;8.580;2023-10-13T12:07:22;28.50;77.80
11246;DHT22;59870;50.106;8.580;2023-10-13T12:10:08;28.20;78.00
11246;DHT22;59870;50.106;8.580;2023-10-13T12:13:01;28.20;77.80
11246;DHT22;59870;50.106;8.580;2023-10-13T12:15:33;28.30;77.00
11246;DHT22;59870;50.106;8.580;2023-10-13T12:18:15;28.20;78.20
11246;DHT22;59870;50.106;8.580;2023-10-13T12:20:44;28.20;77.80
11246;DHT22;59870;50.106;8.580;2023-10-13T12:23:13;28.30;78.20
11246;DHT22;59870;50.106;8.580;2023-10-13T12:25:45;28.30;78.50
11246;DHT22;59870;50.106;8.580;2023-10-13T12:28:23;28.20;78.20
11246;DHT22;59870;50.106;8.580;2023-10-13T12:30:56;28.50;78.80
11246;DHT22;59870;50.106;8.580;2023-10-13T12:33:31;28.20;78.40
11246;DHT22;59870;50.106;8.580;2023-10-13T12:36:05;28.30;79.70
11246;DHT22;59870;50.106;8.580;2023-10-13T12:38:42;28.30;78.60
11246;DHT22;59870;50.106;8.580;2023-10-13T12:41:17;28.30;79.30
11246;DHT22;59870;50.106;8.580;2023-10-13T12:44:04;28.30;79.10
11246;DHT22;59870;50.106;8.580;2023-10-13T12:46:51;28.30;77.90
11246;DHT22;59870;50.106;8.580;2023-10-13T12:49:38;28.50;78.10
11246;DHT22;59870;50.106;8.580;2023-10-13T12:52:16;28.40;78.40
11246;DHT22;59870;50.106;8.580;2023-10-13T12:54:48;28.40;78.00
11246;DHT22;59870;50.106;8.580;2023-10-13T12:57:24;28.40;77.60
11246;DHT22;59870;50.106;8.580;2023-10-13T12:59:52;28.60;78.00
11246;DHT22;59870;50.106;8.580;2023-10-13T13:02:22;28.70;79.00
11246;DHT22;59870;50.106;8.580;2023-10-13T13:04:53;28.50;78.30
11246;DHT22;59870;50.106;8.580;2023-10-13T13:07:29;28.60;78.80
11246;DHT22;59870;50.106;8.580;2023-10-13T13:09:58;28.60;80.20
11246;DHT22;59870;50.106;8.580;2023-10-13T13:12:27;28.60;78.90
11246;DHT22;59870;50.106;8.580;2023-10-13T13:14:58;28.70;79.00
11246;DHT22;59870;50.106;8.580;2023-10-13T13:17:27;28.70;78.80
11246;DHT22;59870;50.106;8.580;2023-10-13T13:19:55;29.00;77.20
11246;DHT22;59870;50.106;8.580;2023-10-13T13:22:22;28.80;77.40
11246;DHT22;59870;50.106;8.580;2023-10-13T13:24:50;28.80;77.70
11246;DHT22;59870;50.106;8.580;2023-10-13T13:27:17;29.20;77.30
11246;DHT22;59870;50.106;8.580;2023-10-13T13:29:46;28.90;77.00
11246;DHT22;59870;50.106;8.580;2023-10-13T13:32:14;29.10;76.10
11246;DHT22;59870;50.106;8.580;2023-10-13T13:34:56;29.00;76.40
11246;DHT22;59870;50.106;8.580;2023-10-13T13:37:32;29.00;75.20
11246;DHT22;59870;50.106;8.580;2023-10-13T13:40:03;29.30;74.30
11246;DHT22;59870;50.106;8.580;2023-10-13T13:42:50;29.00;73.60
11246;DHT22;59870;50.106;8.580;2023-10-13T13:45:19;29.40;73.30
11246;DHT22;59870;50.106;8.580;2023-10-13T13:47:55;29.10;72.80
11246;DHT22;59870;50.106;8.580;2023-10-13T13:50:24;29.40;73.80
11246;DHT22;59870;50.106;8.580;2023-10-13T13:52:57;29.10;72.60
11246;DHT22;59870;50.106;8.580;2023-10-13T13:55:25;29.30;72.40
11246;DHT22;59870;50.106;8.580;2023-10-13T13:57:57;29.30;73.00
11246;DHT22;59870;50.106;8.580;2023-10-13T14:00:24;29.30;72.60
11246;DHT22;59870;50.106;8.580;2023-10-13T14:03:08;29.20;71.30
11246;DHT22;59870;50.106;8.580;2023-10-13T14:05:43;29.20;71.30
11246;DHT22;59870;50.106;8.580;2023-10-13T14:08:12;29.20;69.20
11246;DHT22;59870;50.106;8.580;2023-10-13T14:10:42;29.40;69.40
11246;DHT22;59870;50.106;8.580;2023-10-13T14:13:40;29.30;70.20
11246;DHT22;59870;50.106;8.580;2023-10-13T14:16:18;29.20;69.80
11246;DHT22;59870;50.106;8.580;2023-10-13T14:18:50;29.40;70.60
11246;DHT22;59870;50.106;8.580;2023-10-13T14:21:18;29.20;68.90
11246;DHT22;59870;50.106;8.580;2023-10-13T14:23:47;29.20;68.60
11246;DHT22;59870;50.106;8.580;2023-10-13T14:26:16;29.20;69.30
11246;DHT22;59870;50.106;8.580;2023-10-13T14:28:48;29.40;67.30
11246;DHT22;59870;50.106;8.580;2023-10-13T14:31:30;29.10;68.40
11246;DHT22;59870;50.106;8.580;2023-10-13T14:33:58;29.10;68.40
11246;DHT22;59870;50.106;8.580;2023-10-13T14:36:26;29.10;68.00
11246;DHT22;59870;50.106;8.580;2023-10-13T14:38:56;29.10;67.10
11246;DHT22;59870;50.106;8.580;2023-10-13T14:41:24;29.10;66.00
11246;DHT22;59870;50.106;8.580;2023-10-13T14:43:51;29.00;63.80
11246;DHT22;59870;50.106;8.580;2023-10-13T14:46:20;29.20;64.60
11246;DHT22;59870;50.106;8.580;2023-10-13T14:48:52;29.00;64.40
11246;DHT22;59870;50.106;8.580;2023-10-13T14:51:20;29.00;64.00
11246;DHT22;59870;50.106;8.580;2023-10-13T14:53:50;29.00;65.10
11246;DHT22;59870;50.106;8.580;2023-10-13T14:56:23;29.00;65.40
11246;DHT22;59870;50.106;8.580;2023-10-13T14:58:53;29.00;65.60
11246;DHT22;59870;50.106;8.580;2023-10-13T15:01:23;28.90;66.20
11246;DHT22;59870;50.106;8.580;2023-10-13T15:03:54;28.90;65.80
11246;DHT22;59870;50.106;8.580;2023-10-13T15:06:26;28.90;67.20
11246;DHT22;59870;50.106;8.580;2023-10-13T15:08:59;29.10;66.30
11246;DHT22;59870;50.106;8.580;2023-10-13T15:11:27;29.10;67.30
11246;DHT22;59870;50.106;8.580;2023-10-13T15:14:13;28.90;65.90
11246;DHT22;59870;50.106;8.580;2023-10-13T15:16:41;28.80;66.70
11246;DHT22;59870;50.106;8.580;2023-10-13T15:19:11;29.00;65.00
11246;DHT22;59870;50.106;8.580;2023-10-13T15:21:40;28.80;64.50
11246;DHT22;59870;50.106;8.580;2023-10-13T15:24:08;28.80;66.00
11246;DHT22;59870;50.106;8.580;2023-10-13T15:26:45;28.70;64.90
11246;DHT22;59870;50.106;8.580;2023-10-13T15:29:19;28.70;63.40
11246;DHT22;59870;50.106;8.580;2023-10-13T15:31:53;28.70;63.70
11246;DHT22;59870;50.106;8.580;2023-10-13T15:34:30;28.90;63.20
11246;DHT22;59870;50.106;8.580;2023-10-13T15:36:59;28.80;64.00
11246;DHT22;59870;50.106;8.580;2023-10-13T15:39:27;28.60;63.00
11246;DHT22;59870;50.106;8.580;2023-10-13T15:41:56;28.50;63.50
11246;DHT22;59870;50.106;8.580;2023-10-13T15:44:27;28.60;63.60
11246;DHT22;59870;50.106;8.580;2023-10-13T15:46:58;28.70;63.20
11246;DHT22;59870;50.106;8.580;2023-10-13T15:49:29;28.50;63.10
11246;DHT22;59870;50.106;8.580;2023-10-13T15:51:57;28.50;62.60
11246;DHT22;59870;50.106;8.580;2023-10-13T15:54:25;28.50;63.20
11246;DHT22;59870;50.106;8.580;2023-10-13T15:56:53;28.80;63.20
11246;DHT22;59870;50.106;8.580;2023-10-13T15:59:23;28.50;63.00
11246;DHT22;59870;50.106;8.580;2023-10-13T16:01:51;28.70;62.30
11246;DHT22;59870;50.106;8.580;2023-10-13T16:04:26;28.70;63.70
11246;DHT22;59870;50.106;8.580;2023-10-13T16:06:53;28.50;62.40
11246;DHT22;59870;50.106;8.580;2023-10-13T16:09:21;28.70;62.60
11246;DHT22;59870;50.106;8.580;2023-10-13T16:11:53;28.70;62.10
11246;DHT22;59870;50.106;8.580;2023-10-13T16:14:22;28.50;62.40
11246;DHT22;59870;50.106;8.580;2023-10-13T16:16:50;28.70;61.30
11246;DHT22;59870;50.106;8.580;2023-10-13T16:19:21;28.50;62.70
11246;DHT22;59870;50.106;8.580;2023-10-13T16:21:52;28.50;62.00
11246;DHT22;59870;50.106;8.580;2023-10-13T16:24:21;28.40;63.60
11246;DHT22;59870;50.106;8.580;2023-10-13T16:26:50;28.30;64.00
11246;DHT22;59870;50.106;8.580;2023-10-13T16:29:23;28.40;64.90
11246;DHT22;59870;50.106;8.580;2023-10-13T16:31:51;28.20;67.00